»·PEaware :: SWA5777 KSBA-KPHX

SWA5777 :: KSBA-KPHX

FLIGHT INFORMATION

Flight Status: Arrived
Operator:
Southwest Airlines
More flights by this operator :: More flights under this callsign
Pilot: Ben F. (2808)
Aircraft: BOEING 737-800
(B738)
More flights by this aircraft type
Origin: KSBA Santa Barbara Mun
United States
Destination: KPHX Phoenix Sky Harbor Intl
United States
More flights between these airports :: More routes between these airports
Route: +MISHN2 KPTIN BENET SXC TRM BLH HYDRR1
File this flight plan on PilotEdge
Remarks:
Altitude:
(Current/Filed)
37,000ft
Speed:
(Current/Filed)
456kts
Departed: 04-Nov-18 08:41 AM
Arrived: 04-Nov-18 09:49 AM
Distance/Time
Traveled:
395nm/1:08
Distance/Time
To Go:
Arrived

Flight Plot

Page will automatically refresh every two minutes.

Flight plan parsing failed; only flown route is shown


Map Options




Map Legend


Flown Route
Filed Route
Departure Airport
Arrival Airport
Navaid (VOR, NDB)
Fix

Horizontal Profiles

Position Reports

Time Latitude Longitude Heading Altitude Ground
Speed
04-Nov-18 08:26 34.424260 -119.836972 104 17ft 0kts
04-Nov-18 08:27 34.424260 -119.836972 104 17ft 0kts
04-Nov-18 08:28 34.424260 -119.836972 104 17ft 0kts
04-Nov-18 08:29 34.424260 -119.836972 104 17ft 0kts
04-Nov-18 08:30 34.424260 -119.836972 104 17ft 0kts
04-Nov-18 08:31 34.424260 -119.836972 104 17ft 0kts
04-Nov-18 08:32 34.424260 -119.836972 104 17ft 0kts
04-Nov-18 08:33 34.424260 -119.836972 104 17ft 0kts
04-Nov-18 08:34 34.424260 -119.836972 104 17ft 0kts
04-Nov-18 08:35 34.424225 -119.837517 23 17ft 2kts
04-Nov-18 08:36 34.423998 -119.837499 345 17ft 0kts
04-Nov-18 08:37 34.423999 -119.837500 345 17ft 0kts
04-Nov-18 08:38 34.424000 -119.837500 345 17ft 0kts
04-Nov-18 08:39 34.424002 -119.837500 345 17ft 0kts
04-Nov-18 08:40 34.424944 -119.837788 345 17ft 10kts
04-Nov-18 08:41 34.426769 -119.835329 88 17ft 15kts
04-Nov-18 08:42 34.427169 -119.834580 356 17ft 6kts
04-Nov-18 08:43 34.427905 -119.835349 266 18ft 10kts
04-Nov-18 08:44 34.427135 -119.878740 268 1329ft 174kts
04-Nov-18 08:45 34.407733 -119.936160 202 3040ft 240kts
04-Nov-18 08:46 34.339333 -119.925711 140 3033ft 262kts
04-Nov-18 08:47 34.284952 -119.863404 134 6158ft 278kts
04-Nov-18 08:48 34.227964 -119.794389 133 9168ft 300kts
04-Nov-18 08:49 34.199547 -119.698736 89 11265ft 337kts
04-Nov-18 08:50 34.194726 -119.575240 90 12876ft 385kts
04-Nov-18 08:51 34.192437 -119.444239 87 15343ft 395kts
04-Nov-18 08:52 34.148363 -119.323150 135 17490ft 428kts
04-Nov-18 08:53 34.050656 -119.236057 141 19393ft 444kts
04-Nov-18 08:54 33.949364 -119.148231 140 21288ft 452kts
04-Nov-18 08:55 33.846023 -119.057941 140 22845ft 463kts
04-Nov-18 08:56 33.740391 -118.965921 140 23963ft 472kts
04-Nov-18 08:57 33.633007 -118.872641 138 25360ft 479kts
04-Nov-18 08:58 33.548591 -118.751803 117 26598ft 476kts
04-Nov-18 08:59 33.478338 -118.615592 118 27797ft 483kts
04-Nov-18 09:00 33.405993 -118.478217 116 28869ft 490kts
04-Nov-18 09:01 33.387183 -118.324490 79 30193ft 467kts
04-Nov-18 09:02 33.404703 -118.171511 77 31686ft 462kts
04-Nov-18 09:03 33.422398 -118.020121 77 33120ft 457kts
04-Nov-18 09:04 33.440346 -117.870014 76 34422ft 453kts
04-Nov-18 09:05 33.457808 -117.720711 76 35614ft 451kts
04-Nov-18 09:06 33.474893 -117.572383 76 36683ft 449kts
04-Nov-18 09:07 33.491739 -117.424363 76 37056ft 448kts
04-Nov-18 09:08 33.508353 -117.276696 75 37061ft 446kts
04-Nov-18 09:09 33.524773 -117.129099 75 37070ft 446kts
04-Nov-18 09:10 33.540994 -116.981691 76 37074ft 446kts
04-Nov-18 09:11 33.557037 -116.834231 75 37082ft 446kts
04-Nov-18 09:12 33.572936 -116.686446 76 37084ft 447kts
04-Nov-18 09:13 33.588708 -116.538419 75 37093ft 447kts
04-Nov-18 09:14 33.587774 -116.386867 86 37070ft 458kts
04-Nov-18 09:15 33.580572 -116.234427 86 37046ft 458kts
04-Nov-18 09:16 33.573121 -116.081390 86 37040ft 459kts
04-Nov-18 09:17 33.565451 -115.928842 86 37043ft 459kts
04-Nov-18 09:18 33.557741 -115.775859 86 37050ft 459kts
04-Nov-18 09:19 33.549937 -115.623621 86 37050ft 458kts
04-Nov-18 09:20 33.541937 -115.471074 86 37053ft 458kts
04-Nov-18 09:21 33.533738 -115.318547 86 37059ft 457kts
04-Nov-18 09:22 33.525334 -115.166115 86 37063ft 457kts
04-Nov-18 09:23 33.516758 -115.014438 86 36710ft 457kts
04-Nov-18 09:24 33.507978 -114.862792 87 34118ft 457kts
04-Nov-18 09:25 33.498682 -114.710186 88 31503ft 456kts
04-Nov-18 09:26 33.489502 -114.561045 89 29466ft 443kts
04-Nov-18 09:27 33.482216 -114.415433 86 27504ft 430kts
04-Nov-18 09:28 33.474656 -114.273604 90 25554ft 423kts
04-Nov-18 09:29 33.456806 -114.134823 85 23713ft 420kts
04-Nov-18 09:30 33.447581 -113.998209 100 23069ft 415kts
04-Nov-18 09:31 33.418450 -113.863290 99 22338ft 420kts
04-Nov-18 09:32 33.392087 -113.729795 99 21079ft 407kts
04-Nov-18 09:33 33.365559 -113.599137 99 19880ft 400kts
04-Nov-18 09:34 33.339382 -113.471242 99 18709ft 393kts
04-Nov-18 09:35 33.317182 -113.344555 97 17558ft 386kts
04-Nov-18 09:36 33.295690 -113.219885 97 16370ft 378kts
04-Nov-18 09:37 33.278352 -113.097885 96 15259ft 362kts
04-Nov-18 09:38 33.276241 -112.980670 84 13964ft 347kts
04-Nov-18 09:39 33.279432 -112.866727 85 12636ft 337kts
04-Nov-18 09:39 33.295218 -112.780300 62 11966ft 299kts
04-Nov-18 09:41 33.333659 -112.680058 62 10749ft 278kts
04-Nov-18 09:41 33.360305 -112.610420 64 9450ft 274kts
04-Nov-18 09:43 33.396272 -112.515816 65 8198ft 255kts
04-Nov-18 09:43 33.419154 -112.452015 67 7366ft 244kts
04-Nov-18 09:45 33.429077 -112.361296 90 6111ft 234kts
04-Nov-18 09:45 33.429021 -112.299297 90 5513ft 216kts
04-Nov-18 09:46 33.428976 -112.228913 89 4384ft 203kts
04-Nov-18 09:47 33.428940 -112.166228 88 3383ft 176kts
04-Nov-18 09:48 33.428909 -112.112339 88 2520ft 152kts
04-Nov-18 09:49 33.428802 -112.060865 89 1720ft 155kts
04-Nov-18 09:50 33.428821 -112.012784 89 1143ft 80kts
04-Nov-18 09:51 33.429835 -112.007316 69 1143ft 0kts
04-Nov-18 09:52 33.431095 -112.006258 358 1143ft 16kts
04-Nov-18 09:53 33.432104 -112.004278 91 1143ft 19kts
04-Nov-18 09:54 33.432105 -111.996935 89 1143ft 22kts
04-Nov-18 09:55 33.434033 -111.996059 293 1143ft 3kts
04-Nov-18 09:56 33.434049 -111.996103 292 1143ft 0kts
04-Nov-18 09:57 33.434049 -111.996103 292 1143ft 0kts
04-Nov-18 09:58 33.434049 -111.996103 292 1143ft 0kts
04-Nov-18 09:59 33.434049 -111.996103 292 1143ft 0kts
04-Nov-18 10:00 33.434049 -111.996103 292 1143ft 0kts
04-Nov-18 10:01 33.434049 -111.996103 292 1143ft 0kts

Navigation Log

Ident Type
Flight plan parsing failed, navigation log unavailable